Terminal Aerodrome Forecast
Issued by NWS

Home | Current Version | Previous Version | Text Only | Print | Product List | Glossary On
Versions: 1 2 3 4 5 6 7 8 9 10 11 12 13 14
538
FTUS41 KPBZ 242336
TAFDUJ
TAF
KDUJ 242336Z 2500/2524 12008KT P6SM VCSH OVC120
     FM250400 11010G25KT P6SM OVC060
     FM250900 11010G20KT P6SM VCSH OVC015
     FM252200 09009KT P6SM OVC025=

USA.gov is the U.S. government's official web portal to all federal, state and local government web resources and services.